sensor_id;sensor_type;location;lat;lon;timestamp;P1;durP1;ratioP1;P2;durP2;ratioP2
18973;SDS011;9621;48.690;9.466;2024-03-25T00:01:06;5.03;;;2.50;;
18973;SDS011;9621;48.690;9.466;2024-03-25T00:03:32;6.57;;;2.10;;
18973;SDS011;9621;48.690;9.466;2024-03-25T00:05:59;6.57;;;2.63;;
18973;SDS011;9621;48.690;9.466;2024-03-25T00:08:25;4.87;;;2.27;;
18973;SDS011;9621;48.690;9.466;2024-03-25T00:10:53;4.13;;;2.13;;
18973;SDS011;9621;48.690;9.466;2024-03-25T00:13:20;7.57;;;2.67;;
18973;SDS011;9621;48.690;9.466;2024-03-25T00:15:47;9.93;;;2.73;;
18973;SDS011;9621;48.690;9.466;2024-03-25T00:18:13;6.73;;;2.70;;
18973;SDS011;9621;48.690;9.466;2024-03-25T00:20:40;8.00;;;2.60;;
18973;SDS011;9621;48.690;9.466;2024-03-25T00:23:05;7.87;;;3.00;;
18973;SDS011;9621;48.690;9.466;2024-03-25T00:25:33;6.13;;;2.43;;
18973;SDS011;9621;48.690;9.466;2024-03-25T00:28:01;4.60;;;2.43;;
18973;SDS011;9621;48.690;9.466;2024-03-25T00:30:27;6.93;;;2.50;;
18973;SDS011;9621;48.690;9.466;2024-03-25T00:32:54;8.07;;;2.50;;
18973;SDS011;9621;48.690;9.466;2024-03-25T00:35:21;5.30;;;2.23;;
18973;SDS011;9621;48.690;9.466;2024-03-25T00:37:46;10.10;;;2.80;;
18973;SDS011;9621;48.690;9.466;2024-03-25T00:40:14;6.73;;;2.40;;
18973;SDS011;9621;48.690;9.466;2024-03-25T00:42:40;5.23;;;3.33;;
18973;SDS011;9621;48.690;9.466;2024-03-25T00:45:09;7.87;;;3.20;;
18973;SDS011;9621;48.690;9.466;2024-03-25T00:47:34;5.97;;;2.40;;
18973;SDS011;9621;48.690;9.466;2024-03-25T00:50:01;6.17;;;3.00;;
18973;SDS011;9621;48.690;9.466;2024-03-25T00:52:27;4.57;;;3.10;;
18973;SDS011;9621;48.690;9.466;2024-03-25T00:54:54;4.97;;;2.40;;
18973;SDS011;9621;48.690;9.466;2024-03-25T00:57:20;6.30;;;2.73;;
18973;SDS011;9621;48.690;9.466;2024-03-25T00:59:47;5.60;;;2.30;;
18973;SDS011;9621;48.690;9.466;2024-03-25T01:02:15;5.47;;;2.73;;
18973;SDS011;9621;48.690;9.466;2024-03-25T01:04:42;9.30;;;3.27;;
18973;SDS011;9621;48.690;9.466;2024-03-25T01:07:09;6.03;;;2.60;;
18973;SDS011;9621;48.690;9.466;2024-03-25T01:09:35;8.87;;;2.83;;
18973;SDS011;9621;48.690;9.466;2024-03-25T01:12:02;4.77;;;2.60;;
18973;SDS011;9621;48.690;9.466;2024-03-25T01:14:28;4.67;;;2.83;;
18973;SDS011;9621;48.690;9.466;2024-03-25T01:16:55;6.47;;;3.00;;
18973;SDS011;9621;48.690;9.466;2024-03-25T01:19:23;5.47;;;2.63;;
18973;SDS011;9621;48.690;9.466;2024-03-25T01:21:51;6.13;;;2.70;;
18973;SDS011;9621;48.690;9.466;2024-03-25T01:24:16;6.40;;;2.60;;
18973;SDS011;9621;48.690;9.466;2024-03-25T01:26:45;7.73;;;2.90;;
18973;SDS011;9621;48.690;9.466;2024-03-25T01:29:11;5.97;;;2.97;;
18973;SDS011;9621;48.690;9.466;2024-03-25T01:31:37;7.03;;;3.67;;
18973;SDS011;9621;48.690;9.466;2024-03-25T01:34:03;4.80;;;2.83;;
18973;SDS011;9621;48.690;9.466;2024-03-25T01:36:32;6.67;;;3.17;;
18973;SDS011;9621;48.690;9.466;2024-03-25T01:38:59;5.27;;;3.00;;
18973;SDS011;9621;48.690;9.466;2024-03-25T01:41:26;6.03;;;2.77;;
18973;SDS011;9621;48.690;9.466;2024-03-25T01:43:52;7.47;;;3.07;;
18973;SDS011;9621;48.690;9.466;2024-03-25T01:46:19;6.17;;;2.77;;
18973;SDS011;9621;48.690;9.466;2024-03-25T01:48:47;8.10;;;3.20;;
18973;SDS011;9621;48.690;9.466;2024-03-25T01:51:15;5.27;;;3.07;;
18973;SDS011;9621;48.690;9.466;2024-03-25T01:53:47;4.20;;;2.70;;
18973;SDS011;9621;48.690;9.466;2024-03-25T01:56:13;4.33;;;2.80;;
18973;SDS011;9621;48.690;9.466;2024-03-25T01:58:41;8.27;;;3.47;;
18973;SDS011;9621;48.690;9.466;2024-03-25T02:01:07;8.33;;;3.50;;
18973;SDS011;9621;48.690;9.466;2024-03-25T02:03:39;4.67;;;3.33;;
18973;SDS011;9621;48.690;9.466;2024-03-25T02:06:06;6.63;;;3.37;;
18973;SDS011;9621;48.690;9.466;2024-03-25T02:08:41;7.47;;;3.53;;
18973;SDS011;9621;48.690;9.466;2024-03-25T02:11:09;9.33;;;3.20;;
18973;SDS011;9621;48.690;9.466;2024-03-25T02:13:37;18.70;;;3.67;;
18973;SDS011;9621;48.690;9.466;2024-03-25T02:16:04;7.00;;;3.10;;
18973;SDS011;9621;48.690;9.466;2024-03-25T02:18:31;7.67;;;3.63;;
18973;SDS011;9621;48.690;9.466;2024-03-25T02:20:57;7.73;;;3.20;;
18973;SDS011;9621;48.690;9.466;2024-03-25T02:23:25;6.60;;;3.30;;
18973;SDS011;9621;48.690;9.466;2024-03-25T02:25:52;5.33;;;3.17;;
18973;SDS011;9621;48.690;9.466;2024-03-25T02:28:20;8.33;;;3.60;;
18973;SDS011;9621;48.690;9.466;2024-03-25T02:30:46;6.90;;;3.30;;
18973;SDS011;9621;48.690;9.466;2024-03-25T02:33:13;5.53;;;3.00;;
18973;SDS011;9621;48.690;9.466;2024-03-25T02:35:39;7.33;;;3.20;;
18973;SDS011;9621;48.690;9.466;2024-03-25T02:38:08;4.90;;;2.93;;
18973;SDS011;9621;48.690;9.466;2024-03-25T02:40:34;5.57;;;3.00;;
18973;SDS011;9621;48.690;9.466;2024-03-25T02:43:03;7.50;;;3.27;;
18973;SDS011;9621;48.690;9.466;2024-03-25T02:45:29;6.23;;;3.00;;
18973;SDS011;9621;48.690;9.466;2024-03-25T02:47:56;6.13;;;3.13;;
18973;SDS011;9621;48.690;9.466;2024-03-25T02:50:22;6.37;;;3.23;;
18973;SDS011;9621;48.690;9.466;2024-03-25T02:52:49;5.07;;;3.10;;
18973;SDS011;9621;48.690;9.466;2024-03-25T02:55:14;5.33;;;3.13;;
18973;SDS011;9621;48.690;9.466;2024-03-25T02:57:41;9.13;;;3.30;;
18973;SDS011;9621;48.690;9.466;2024-03-25T03:00:10;7.47;;;3.07;;
18973;SDS011;9621;48.690;9.466;2024-03-25T03:02:38;9.20;;;3.40;;
18973;SDS011;9621;48.690;9.466;2024-03-25T03:05:04;5.83;;;3.20;;
18973;SDS011;9621;48.690;9.466;2024-03-25T03:07:31;4.73;;;2.93;;
18973;SDS011;9621;48.690;9.466;2024-03-25T03:09:57;5.87;;;2.87;;
18973;SDS011;9621;48.690;9.466;2024-03-25T03:12:24;3.73;;;2.80;;
18973;SDS011;9621;48.690;9.466;2024-03-25T03:14:50;7.40;;;3.17;;
18973;SDS011;9621;48.690;9.466;2024-03-25T03:17:18;5.13;;;2.97;;
18973;SDS011;9621;48.690;9.466;2024-03-25T03:19:45;8.17;;;3.10;;
18973;SDS011;9621;48.690;9.466;2024-03-25T03:22:11;6.10;;;3.10;;
18973;SDS011;9621;48.690;9.466;2024-03-25T03:24:37;7.33;;;3.10;;
18973;SDS011;9621;48.690;9.466;2024-03-25T03:27:04;5.30;;;3.17;;
18973;SDS011;9621;48.690;9.466;2024-03-25T03:29:30;11.83;;;3.47;;
18973;SDS011;9621;48.690;9.466;2024-03-25T03:31:57;9.77;;;3.37;;
18973;SDS011;9621;48.690;9.466;2024-03-25T03:34:25;5.93;;;2.90;;
18973;SDS011;9621;48.690;9.466;2024-03-25T03:36:52;5.47;;;3.07;;
18973;SDS011;9621;48.690;9.466;2024-03-25T03:39:18;5.10;;;2.90;;
18973;SDS011;9621;48.690;9.466;2024-03-25T03:41:44;5.70;;;2.80;;
18973;SDS011;9621;48.690;9.466;2024-03-25T03:44:10;4.87;;;3.10;;
18973;SDS011;9621;48.690;9.466;2024-03-25T03:46:40;5.27;;;2.87;;
18973;SDS011;9621;48.690;9.466;2024-03-25T03:49:06;8.00;;;3.53;;
18973;SDS011;9621;48.690;9.466;2024-03-25T03:51:34;5.73;;;3.40;;
18973;SDS011;9621;48.690;9.466;2024-03-25T03:54:00;5.97;;;3.13;;
18973;SDS011;9621;48.690;9.466;2024-03-25T03:56:27;4.83;;;3.03;;
18973;SDS011;9621;48.690;9.466;2024-03-25T03:58:53;6.80;;;3.20;;
18973;SDS011;9621;48.690;9.466;2024-03-25T04:01:19;5.37;;;3.17;;
18973;SDS011;9621;48.690;9.466;2024-03-25T04:03:46;5.80;;;3.23;;
18973;SDS011;9621;48.690;9.466;2024-03-25T04:06:13;7.70;;;3.23;;
18973;SDS011;9621;48.690;9.466;2024-03-25T04:08:41;7.97;;;3.13;;
18973;SDS011;9621;48.690;9.466;2024-03-25T04:11:08;6.17;;;3.30;;
18973;SDS011;9621;48.690;9.466;2024-03-25T04:13:34;5.70;;;3.03;;
18973;SDS011;9621;48.690;9.466;2024-03-25T04:16:02;4.53;;;3.33;;
18973;SDS011;9621;48.690;9.466;2024-03-25T04:18:29;6.00;;;3.00;;
18973;SDS011;9621;48.690;9.466;2024-03-25T04:20:56;5.47;;;3.27;;
18973;SDS011;9621;48.690;9.466;2024-03-25T04:23:23;6.87;;;3.30;;
18973;SDS011;9621;48.690;9.466;2024-03-25T04:25:51;8.00;;;3.20;;
18973;SDS011;9621;48.690;9.466;2024-03-25T04:28:17;6.80;;;2.90;;
18973;SDS011;9621;48.690;9.466;2024-03-25T04:30:50;6.97;;;3.07;;
18973;SDS011;9621;48.690;9.466;2024-03-25T04:33:16;5.43;;;3.00;;
18973;SDS011;9621;48.690;9.466;2024-03-25T04:35:43;10.07;;;3.00;;
18973;SDS011;9621;48.690;9.466;2024-03-25T04:38:10;6.80;;;2.87;;
18973;SDS011;9621;48.690;9.466;2024-03-25T04:40:36;7.27;;;3.20;;
18973;SDS011;9621;48.690;9.466;2024-03-25T04:43:03;6.13;;;3.07;;
18973;SDS011;9621;48.690;9.466;2024-03-25T04:45:29;6.87;;;3.27;;
18973;SDS011;9621;48.690;9.466;2024-03-25T04:47:55;7.70;;;3.20;;
18973;SDS011;9621;48.690;9.466;2024-03-25T04:50:21;7.03;;;2.97;;
18973;SDS011;9621;48.690;9.466;2024-03-25T04:52:48;6.17;;;3.33;;
18973;SDS011;9621;48.690;9.466;2024-03-25T04:55:14;6.03;;;3.00;;
18973;SDS011;9621;48.690;9.466;2024-03-25T04:57:40;4.70;;;3.23;;
18973;SDS011;9621;48.690;9.466;2024-03-25T05:00:08;7.63;;;3.20;;
18973;SDS011;9621;48.690;9.466;2024-03-25T05:02:36;5.97;;;3.20;;
18973;SDS011;9621;48.690;9.466;2024-03-25T05:05:02;7.77;;;3.77;;
18973;SDS011;9621;48.690;9.466;2024-03-25T05:07:28;11.17;;;4.00;;
18973;SDS011;9621;48.690;9.466;2024-03-25T05:09:54;8.27;;;3.90;;
18973;SDS011;9621;48.690;9.466;2024-03-25T05:12:20;9.37;;;4.00;;
18973;SDS011;9621;48.690;9.466;2024-03-25T05:14:47;8.50;;;4.30;;
18973;SDS011;9621;48.690;9.466;2024-03-25T05:17:14;11.10;;;4.40;;
18973;SDS011;9621;48.690;9.466;2024-03-25T05:19:40;8.00;;;4.17;;
18973;SDS011;9621;48.690;9.466;2024-03-25T05:22:07;9.60;;;4.50;;
18973;SDS011;9621;48.690;9.466;2024-03-25T05:24:33;9.97;;;4.10;;
18973;SDS011;9621;48.690;9.466;2024-03-25T05:26:59;8.67;;;4.50;;
18973;SDS011;9621;48.690;9.466;2024-03-25T05:29:24;11.27;;;4.67;;
18973;SDS011;9621;48.690;9.466;2024-03-25T05:31:57;14.70;;;5.13;;
18973;SDS011;9621;48.690;9.466;2024-03-25T05:34:25;7.97;;;4.87;;
18973;SDS011;9621;48.690;9.466;2024-03-25T05:36:52;7.93;;;4.47;;
18973;SDS011;9621;48.690;9.466;2024-03-25T05:39:18;8.77;;;4.20;;
18973;SDS011;9621;48.690;9.466;2024-03-25T05:41:45;8.40;;;4.00;;
18973;SDS011;9621;48.690;9.466;2024-03-25T05:44:11;11.93;;;4.30;;
18973;SDS011;9621;48.690;9.466;2024-03-25T05:46:38;11.07;;;4.40;;
18973;SDS011;9621;48.690;9.466;2024-03-25T05:49:04;8.57;;;3.80;;
18973;SDS011;9621;48.690;9.466;2024-03-25T05:51:31;11.47;;;4.23;;
18973;SDS011;9621;48.690;9.466;2024-03-25T05:53:58;8.23;;;3.70;;
18973;SDS011;9621;48.690;9.466;2024-03-25T05:56:24;6.43;;;4.10;;
18973;SDS011;9621;48.690;9.466;2024-03-25T05:58:50;6.77;;;3.80;;
18973;SDS011;9621;48.690;9.466;2024-03-25T06:01:16;7.03;;;3.83;;
18973;SDS011;9621;48.690;9.466;2024-03-25T06:03:42;10.23;;;4.00;;
18973;SDS011;9621;48.690;9.466;2024-03-25T06:06:09;10.60;;;3.83;;
18973;SDS011;9621;48.690;9.466;2024-03-25T06:08:36;8.13;;;3.70;;
18973;SDS011;9621;48.690;9.466;2024-03-25T06:11:02;5.03;;;3.50;;
18973;SDS011;9621;48.690;9.466;2024-03-25T06:13:28;7.40;;;3.70;;
18973;SDS011;9621;48.690;9.466;2024-03-25T06:15:55;6.37;;;3.20;;
18973;SDS011;9621;48.690;9.466;2024-03-25T06:18:21;4.93;;;3.30;;
18973;SDS011;9621;48.690;9.466;2024-03-25T06:20:47;8.57;;;3.83;;
18973;SDS011;9621;48.690;9.466;2024-03-25T06:23:21;6.20;;;3.70;;
18973;SDS011;9621;48.690;9.466;2024-03-25T06:25:51;8.97;;;3.40;;
18973;SDS011;9621;48.690;9.466;2024-03-25T06:28:18;8.67;;;3.90;;
18973;SDS011;9621;48.690;9.466;2024-03-25T06:30:44;5.80;;;3.70;;
18973;SDS011;9621;48.690;9.466;2024-03-25T06:33:30;10.10;;;3.83;;
18973;SDS011;9621;48.690;9.466;2024-03-25T06:36:14;7.80;;;3.30;;
18973;SDS011;9621;48.690;9.466;2024-03-25T06:38:41;6.77;;;4.03;;
18973;SDS011;9621;48.690;9.466;2024-03-25T06:41:08;5.47;;;4.03;;
18973;SDS011;9621;48.690;9.466;2024-03-25T06:43:34;7.40;;;3.97;;
18973;SDS011;9621;48.690;9.466;2024-03-25T06:46:01;8.83;;;3.63;;
18973;SDS011;9621;48.690;9.466;2024-03-25T06:48:28;9.33;;;3.73;;
18973;SDS011;9621;48.690;9.466;2024-03-25T06:50:54;7.90;;;3.28;;
18973;SDS011;9621;48.690;9.466;2024-03-25T06:53:21;6.43;;;3.60;;
18973;SDS011;9621;48.690;9.466;2024-03-25T06:55:51;7.43;;;3.53;;
18973;SDS011;9621;48.690;9.466;2024-03-25T06:58:20;5.53;;;3.20;;
18973;SDS011;9621;48.690;9.466;2024-03-25T07:00:46;5.07;;;2.75;;
18973;SDS011;9621;48.690;9.466;2024-03-25T07:03:13;7.00;;;3.03;;
18973;SDS011;9621;48.690;9.466;2024-03-25T07:05:38;6.70;;;2.80;;
18973;SDS011;9621;48.690;9.466;2024-03-25T07:08:05;5.18;;;2.60;;
18973;SDS011;9621;48.690;9.466;2024-03-25T07:10:31;6.15;;;2.60;;
18973;SDS011;9621;48.690;9.466;2024-03-25T07:12:57;7.65;;;2.92;;
18973;SDS011;9621;48.690;9.466;2024-03-25T07:15:25;3.72;;;2.58;;
18973;SDS011;9621;48.690;9.466;2024-03-25T07:17:51;6.13;;;2.60;;
18973;SDS011;9621;48.690;9.466;2024-03-25T07:20:17;5.43;;;2.92;;
18973;SDS011;9621;48.690;9.466;2024-03-25T07:22:43;5.78;;;2.55;;
18973;SDS011;9621;48.690;9.466;2024-03-25T07:25:09;2.92;;;2.33;;
18973;SDS011;9621;48.690;9.466;2024-03-25T07:27:35;7.15;;;3.03;;
18973;SDS011;9621;48.690;9.466;2024-03-25T07:30:01;7.65;;;2.63;;
18973;SDS011;9621;48.690;9.466;2024-03-25T07:32:29;4.18;;;2.45;;
18973;SDS011;9621;48.690;9.466;2024-03-25T07:34:55;5.38;;;2.58;;
18973;SDS011;9621;48.690;9.466;2024-03-25T07:37:21;4.70;;;2.60;;
18973;SDS011;9621;48.690;9.466;2024-03-25T07:39:47;5.22;;;2.80;;
18973;SDS011;9621;48.690;9.466;2024-03-25T07:42:13;4.20;;;2.47;;
18973;SDS011;9621;48.690;9.466;2024-03-25T07:44:39;8.45;;;3.20;;
18973;SDS011;9621;48.690;9.466;2024-03-25T07:47:05;6.82;;;2.67;;
18973;SDS011;9621;48.690;9.466;2024-03-25T07:49:33;6.72;;;2.90;;
18973;SDS011;9621;48.690;9.466;2024-03-25T07:51:59;9.18;;;2.45;;
18973;SDS011;9621;48.690;9.466;2024-03-25T07:54:25;3.53;;;2.40;;
18973;SDS011;9621;48.690;9.466;2024-03-25T07:56:51;4.63;;;2.58;;
18973;SDS011;9621;48.690;9.466;2024-03-25T07:59:17;5.03;;;2.63;;
18973;SDS011;9621;48.690;9.466;2024-03-25T08:01:44;7.13;;;2.42;;
18973;SDS011;9621;48.690;9.466;2024-03-25T08:04:10;4.82;;;2.22;;
18973;SDS011;9621;48.690;9.466;2024-03-25T08:06:38;4.78;;;2.50;;
18973;SDS011;9621;48.690;9.466;2024-03-25T08:09:04;5.75;;;2.65;;
18973;SDS011;9621;48.690;9.466;2024-03-25T08:11:30;5.53;;;2.38;;
18973;SDS011;9621;48.690;9.466;2024-03-25T08:13:57;4.63;;;2.45;;
18973;SDS011;9621;48.690;9.466;2024-03-25T08:16:23;10.40;;;2.65;;
18973;SDS011;9621;48.690;9.466;2024-03-25T08:18:49;4.22;;;2.60;;
18973;SDS011;9621;48.690;9.466;2024-03-25T08:21:15;5.07;;;2.65;;
18973;SDS011;9621;48.690;9.466;2024-03-25T08:23:45;6.35;;;2.63;;
18973;SDS011;9621;48.690;9.466;2024-03-25T08:26:12;5.68;;;2.58;;
18973;SDS011;9621;48.690;9.466;2024-03-25T08:28:38;6.65;;;2.75;;
18973;SDS011;9621;48.690;9.466;2024-03-25T08:31:04;5.38;;;2.80;;
18973;SDS011;9621;48.690;9.466;2024-03-25T08:33:30;5.40;;;2.40;;
18973;SDS011;9621;48.690;9.466;2024-03-25T08:35:56;4.50;;;2.78;;
18973;SDS011;9621;48.690;9.466;2024-03-25T08:38:22;4.47;;;2.30;;
18973;SDS011;9621;48.690;9.466;2024-03-25T08:40:50;6.38;;;2.70;;
18973;SDS011;9621;48.690;9.466;2024-03-25T08:43:16;3.80;;;2.60;;
18973;SDS011;9621;48.690;9.466;2024-03-25T08:45:43;4.80;;;2.30;;
18973;SDS011;9621;48.690;9.466;2024-03-25T08:48:09;6.03;;;2.72;;
18973;SDS011;9621;48.690;9.466;2024-03-25T08:50:36;8.60;;;2.88;;
18973;SDS011;9621;48.690;9.466;2024-03-25T08:53:02;6.55;;;2.88;;
18973;SDS011;9621;48.690;9.466;2024-03-25T08:55:29;8.02;;;3.95;;
18973;SDS011;9621;48.690;9.466;2024-03-25T08:57:57;5.97;;;2.88;;
18973;SDS011;9621;48.690;9.466;2024-03-25T09:00:26;4.70;;;2.80;;
18973;SDS011;9621;48.690;9.466;2024-03-25T09:02:52;4.63;;;2.40;;
18973;SDS011;9621;48.690;9.466;2024-03-25T09:05:18;8.00;;;2.45;;
18973;SDS011;9621;48.690;9.466;2024-03-25T09:07:44;6.93;;;2.60;;
18973;SDS011;9621;48.690;9.466;2024-03-25T09:10:11;4.80;;;2.40;;
18973;SDS011;9621;48.690;9.466;2024-03-25T09:12:57;6.05;;;3.00;;
18973;SDS011;9621;48.690;9.466;2024-03-25T09:15:23;6.07;;;2.63;;
18973;SDS011;9621;48.690;9.466;2024-03-25T09:17:49;4.75;;;2.75;;
18973;SDS011;9621;48.690;9.466;2024-03-25T09:20:15;4.95;;;2.88;;
18973;SDS011;9621;48.690;9.466;2024-03-25T09:22:44;3.40;;;2.30;;
18973;SDS011;9621;48.690;9.466;2024-03-25T09:25:10;4.85;;;2.53;;
18973;SDS011;9621;48.690;9.466;2024-03-25T09:27:36;5.30;;;2.80;;
18973;SDS011;9621;48.690;9.466;2024-03-25T09:30:04;5.60;;;2.38;;
18973;SDS011;9621;48.690;9.466;2024-03-25T09:32:30;7.07;;;2.70;;
18973;SDS011;9621;48.690;9.466;2024-03-25T09:34:56;8.63;;;2.78;;
18973;SDS011;9621;48.690;9.466;2024-03-25T09:37:23;5.97;;;2.78;;
18973;SDS011;9621;48.690;9.466;2024-03-25T09:39:49;6.22;;;2.70;;
18973;SDS011;9621;48.690;9.466;2024-03-25T09:42:15;4.13;;;2.40;;
18973;SDS011;9621;48.690;9.466;2024-03-25T09:44:48;3.40;;;2.70;;
18973;SDS011;9621;48.690;9.466;2024-03-25T09:47:16;7.00;;;2.80;;
18973;SDS011;9621;48.690;9.466;2024-03-25T09:49:42;8.52;;;3.05;;
18973;SDS011;9621;48.690;9.466;2024-03-25T09:52:10;3.55;;;2.88;;
18973;SDS011;9621;48.690;9.466;2024-03-25T09:54:36;5.50;;;2.58;;
18973;SDS011;9621;48.690;9.466;2024-03-25T09:57:03;4.68;;;2.38;;
18973;SDS011;9621;48.690;9.466;2024-03-25T09:59:30;6.25;;;2.75;;
18973;SDS011;9621;48.690;9.466;2024-03-25T10:01:56;4.72;;;2.17;;
18973;SDS011;9621;48.690;9.466;2024-03-25T10:04:26;4.93;;;2.50;;
18973;SDS011;9621;48.690;9.466;2024-03-25T10:06:52;4.55;;;2.03;;
18973;SDS011;9621;48.690;9.466;2024-03-25T10:09:18;4.15;;;2.20;;
18973;SDS011;9621;48.690;9.466;2024-03-25T10:11:46;4.22;;;2.20;;
18973;SDS011;9621;48.690;9.466;2024-03-25T10:14:14;4.38;;;2.20;;
18973;SDS011;9621;48.690;9.466;2024-03-25T10:16:40;4.78;;;2.00;;
18973;SDS011;9621;48.690;9.466;2024-03-25T10:19:06;5.80;;;2.50;;
18973;SDS011;9621;48.690;9.466;2024-03-25T10:21:34;4.20;;;2.35;;
18973;SDS011;9621;48.690;9.466;2024-03-25T10:24:00;6.22;;;2.10;;
18973;SDS011;9621;48.690;9.466;2024-03-25T10:26:27;3.60;;;2.00;;
18973;SDS011;9621;48.690;9.466;2024-03-25T10:29:03;3.47;;;1.60;;
18973;SDS011;9621;48.690;9.466;2024-03-25T10:31:30;3.28;;;1.30;;
18973;SDS011;9621;48.690;9.466;2024-03-25T10:33:57;5.60;;;1.63;;
18973;SDS011;9621;48.690;9.466;2024-03-25T10:36:23;3.63;;;1.80;;
18973;SDS011;9621;48.690;9.466;2024-03-25T10:38:52;3.45;;;1.48;;
18973;SDS011;9621;48.690;9.466;2024-03-25T10:41:20;3.78;;;1.65;;
18973;SDS011;9621;48.690;9.466;2024-03-25T10:43:47;3.67;;;1.95;;
18973;SDS011;9621;48.690;9.466;2024-03-25T10:46:17;5.80;;;2.10;;
18973;SDS011;9621;48.690;9.466;2024-03-25T10:48:47;3.97;;;1.58;;
18973;SDS011;9621;48.690;9.466;2024-03-25T10:51:19;2.38;;;1.73;;
18973;SDS011;9621;48.690;9.466;2024-03-25T10:53:47;3.85;;;1.75;;
18973;SDS011;9621;48.690;9.466;2024-03-25T10:56:20;5.05;;;1.67;;
18973;SDS011;9621;48.690;9.466;2024-03-25T10:58:47;2.40;;;1.55;;
18973;SDS011;9621;48.690;9.466;2024-03-25T11:01:16;2.20;;;1.63;;
18973;SDS011;9621;48.690;9.466;2024-03-25T11:03:43;2.95;;;1.30;;
18973;SDS011;9621;48.690;9.466;2024-03-25T11:06:11;2.67;;;1.38;;
18973;SDS011;9621;48.690;9.466;2024-03-25T11:08:37;4.28;;;1.60;;
18973;SDS011;9621;48.690;9.466;2024-03-25T11:11:04;2.28;;;1.60;;
18973;SDS011;9621;48.690;9.466;2024-03-25T11:13:32;4.15;;;1.85;;
18973;SDS011;9621;48.690;9.466;2024-03-25T11:15:58;3.13;;;1.40;;
18973;SDS011;9621;48.690;9.466;2024-03-25T11:18:25;2.65;;;1.50;;
18973;SDS011;9621;48.690;9.466;2024-03-25T11:21:00;3.53;;;1.50;;
18973;SDS011;9621;48.690;9.466;2024-03-25T11:23:34;3.08;;;1.63;;
18973;SDS011;9621;48.690;9.466;2024-03-25T11:26:01;2.88;;;1.30;;
18973;SDS011;9621;48.690;9.466;2024-03-25T11:28:27;4.38;;;1.75;;
18973;SDS011;9621;48.690;9.466;2024-03-25T11:30:56;3.75;;;1.60;;
18973;SDS011;9621;48.690;9.466;2024-03-25T11:33:22;3.10;;;1.50;;
18973;SDS011;9621;48.690;9.466;2024-03-25T11:35:49;3.25;;;1.90;;
18973;SDS011;9621;48.690;9.466;2024-03-25T11:38:15;3.88;;;1.80;;
18973;SDS011;9621;48.690;9.466;2024-03-25T11:40:41;3.20;;;2.05;;
18973;SDS011;9621;48.690;9.466;2024-03-25T11:43:10;5.03;;;2.25;;
18973;SDS011;9621;48.690;9.466;2024-03-25T11:45:44;3.72;;;2.20;;
18973;SDS011;9621;48.690;9.466;2024-03-25T11:48:15;2.67;;;1.67;;
18973;SDS011;9621;48.690;9.466;2024-03-25T11:50:42;4.60;;;2.00;;
18973;SDS011;9621;48.690;9.466;2024-03-25T11:53:10;2.83;;;1.55;;
18973;SDS011;9621;48.690;9.466;2024-03-25T11:55:36;1.90;;;1.70;;
18973;SDS011;9621;48.690;9.466;2024-03-25T11:58:02;14.38;;;2.20;;
18973;SDS011;9621;48.690;9.466;2024-03-25T12:00:29;6.10;;;1.98;;
18973;SDS011;9621;48.690;9.466;2024-03-25T12:02:55;6.25;;;2.05;;
18973;SDS011;9621;48.690;9.466;2024-03-25T12:05:23;3.33;;;1.73;;
18973;SDS011;9621;48.690;9.466;2024-03-25T12:07:49;1.65;;;1.42;;
18973;SDS011;9621;48.690;9.466;2024-03-25T12:10:15;3.33;;;1.90;;
18973;SDS011;9621;48.690;9.466;2024-03-25T12:13:00;3.45;;;1.48;;
18973;SDS011;9621;48.690;9.466;2024-03-25T12:15:25;2.83;;;1.67;;
18973;SDS011;9621;48.690;9.466;2024-03-25T12:17:51;2.40;;;1.45;;
18973;SDS011;9621;48.690;9.466;2024-03-25T12:20:19;3.97;;;1.70;;
18973;SDS011;9621;48.690;9.466;2024-03-25T12:22:48;2.95;;;1.38;;
18973;SDS011;9621;48.690;9.466;2024-03-25T12:25:14;5.57;;;1.50;;
18973;SDS011;9621;48.690;9.466;2024-03-25T12:27:40;4.95;;;1.70;;
18973;SDS011;9621;48.690;9.466;2024-03-25T12:30:11;4.43;;;1.75;;
18973;SDS011;9621;48.690;9.466;2024-03-25T12:32:37;3.67;;;1.65;;
18973;SDS011;9621;48.690;9.466;2024-03-25T12:35:06;2.13;;;1.30;;
18973;SDS011;9621;48.690;9.466;2024-03-25T12:37:33;4.28;;;1.65;;
18973;SDS011;9621;48.690;9.466;2024-03-25T12:40:01;3.65;;;1.95;;
18973;SDS011;9621;48.690;9.466;2024-03-25T12:42:27;4.63;;;1.63;;
18973;SDS011;9621;48.690;9.466;2024-03-25T12:44:53;3.25;;;1.60;;
18973;SDS011;9621;48.690;9.466;2024-03-25T12:47:20;2.83;;;1.95;;
18973;SDS011;9621;48.690;9.466;2024-03-25T12:49:46;4.05;;;1.58;;
18973;SDS011;9621;48.690;9.466;2024-03-25T12:52:12;2.75;;;1.60;;
18973;SDS011;9621;48.690;9.466;2024-03-25T12:54:38;2.80;;;1.75;;
18973;SDS011;9621;48.690;9.466;2024-03-25T12:57:06;3.63;;;1.90;;
18973;SDS011;9621;48.690;9.466;2024-03-25T12:59:32;3.38;;;1.73;;
18973;SDS011;9621;48.690;9.466;2024-03-25T13:01:58;4.93;;;2.35;;
18973;SDS011;9621;48.690;9.466;2024-03-25T13:04:25;5.13;;;2.03;;
18973;SDS011;9621;48.690;9.466;2024-03-25T13:06:51;5.95;;;1.98;;
18973;SDS011;9621;48.690;9.466;2024-03-25T13:09:18;6.07;;;2.00;;
18973;SDS011;9621;48.690;9.466;2024-03-25T13:11:44;3.13;;;2.08;;
18973;SDS011;9621;48.690;9.466;2024-03-25T13:14:12;4.88;;;1.90;;
18973;SDS011;9621;48.690;9.466;2024-03-25T13:16:41;5.15;;;2.13;;
18973;SDS011;9621;48.690;9.466;2024-03-25T13:19:07;4.07;;;2.08;;
18973;SDS011;9621;48.690;9.466;2024-03-25T13:21:33;3.25;;;2.10;;
18973;SDS011;9621;48.690;9.466;2024-03-25T13:23:59;5.63;;;1.90;;
18973;SDS011;9621;48.690;9.466;2024-03-25T13:26:25;3.67;;;2.25;;
18973;SDS011;9621;48.690;9.466;2024-03-25T13:28:51;3.45;;;2.00;;
18973;SDS011;9621;48.690;9.466;2024-03-25T13:31:19;3.28;;;2.10;;
18973;SDS011;9621;48.690;9.466;2024-03-25T13:33:45;5.00;;;2.15;;
18973;SDS011;9621;48.690;9.466;2024-03-25T13:36:11;4.43;;;1.95;;
18973;SDS011;9621;48.690;9.466;2024-03-25T13:38:37;3.30;;;1.90;;
18973;SDS011;9621;48.690;9.466;2024-03-25T13:41:03;4.07;;;1.90;;
18973;SDS011;9621;48.690;9.466;2024-03-25T13:43:30;3.30;;;1.58;;
18973;SDS011;9621;48.690;9.466;2024-03-25T13:45:56;4.45;;;1.92;;
18973;SDS011;9621;48.690;9.466;2024-03-25T13:48:23;4.00;;;1.88;;
18973;SDS011;9621;48.690;9.466;2024-03-25T13:50:49;3.80;;;1.67;;
18973;SDS011;9621;48.690;9.466;2024-03-25T13:53:18;4.15;;;1.90;;
18973;SDS011;9621;48.690;9.466;2024-03-25T13:55:44;8.95;;;2.10;;
18973;SDS011;9621;48.690;9.466;2024-03-25T13:58:10;22.70;;;2.85;;
18973;SDS011;9621;48.690;9.466;2024-03-25T14:00:36;4.32;;;1.90;;
18973;SDS011;9621;48.690;9.466;2024-03-25T14:03:03;3.15;;;1.65;;
18973;SDS011;9621;48.690;9.466;2024-03-25T14:05:31;4.53;;;1.77;;
18973;SDS011;9621;48.690;9.466;2024-03-25T14:07:57;3.95;;;1.83;;
18973;SDS011;9621;48.690;9.466;2024-03-25T14:10:23;5.13;;;1.60;;
18973;SDS011;9621;48.690;9.466;2024-03-25T14:12:49;3.72;;;1.88;;
18973;SDS011;9621;48.690;9.466;2024-03-25T14:15:15;4.38;;;1.70;;
18973;SDS011;9621;48.690;9.466;2024-03-25T14:17:41;4.72;;;1.98;;
18973;SDS011;9621;48.690;9.466;2024-03-25T14:20:08;3.65;;;1.83;;
18973;SDS011;9621;48.690;9.466;2024-03-25T14:22:36;3.88;;;1.95;;
18973;SDS011;9621;48.690;9.466;2024-03-25T14:25:03;2.88;;;2.10;;
18973;SDS011;9621;48.690;9.466;2024-03-25T14:27:32;5.20;;;2.33;;
18973;SDS011;9621;48.690;9.466;2024-03-25T14:29:58;4.68;;;2.13;;
18973;SDS011;9621;48.690;9.466;2024-03-25T14:32:24;4.00;;;2.15;;
18973;SDS011;9621;48.690;9.466;2024-03-25T14:34:50;6.35;;;2.10;;
18973;SDS011;9621;48.690;9.466;2024-03-25T14:37:16;4.03;;;2.20;;
18973;SDS011;9621;48.690;9.466;2024-03-25T14:39:43;3.88;;;2.13;;
18973;SDS011;9621;48.690;9.466;2024-03-25T14:42:10;4.40;;;2.20;;
18973;SDS011;9621;48.690;9.466;2024-03-25T14:44:36;5.60;;;2.55;;
18973;SDS011;9621;48.690;9.466;2024-03-25T14:47:02;5.95;;;2.30;;
18973;SDS011;9621;48.690;9.466;2024-03-25T14:49:30;4.40;;;2.30;;
18973;SDS011;9621;48.690;9.466;2024-03-25T14:51:56;4.38;;;2.42;;
18973;SDS011;9621;48.690;9.466;2024-03-25T14:54:22;2.38;;;2.13;;
18973;SDS011;9621;48.690;9.466;2024-03-25T14:56:50;3.50;;;2.30;;
18973;SDS011;9621;48.690;9.466;2024-03-25T14:59:16;3.47;;;2.45;;